This is the latest recevied weather packets stored in our database for station/object DG8SBT-10. If no packets are shown the sender has not sent any weather packets the latest 10 day(s).
| Time | Temp. | Humidity | Pressure | Rain* | Wind** | Luminosity | Snow |
|---|---|---|---|---|---|---|---|
| 1787977104 | 22.22° C | 56% | 1018.7 hPa | - | - | - | - |
| 1787976204 | 22.22° C | 56% | 1018.9 hPa | - | - | - | - |
| 1787975304 | 22.22° C | 56% | 1018.8 hPa | - | - | - | - |
| 1787974403 | 21.67° C | 57% | 1018.8 hPa | - | - | - | - |
| 1787973503 | 21.67° C | 58% | 1018.8 hPa | - | - | - | - |
| 1787972603 | 21.67° C | 57% | 1018.7 hPa | - | - | - | - |
| 1787971703 | 22.22° C | 56% | 1018.6 hPa | - | - | - | - |
| 1787970803 | 22.22° C | 57% | 1018.7 hPa | - | - | - | - |
| 1787969903 | 22.78° C | 57% | 1018.7 hPa | - | - | - | - |
| 1787969003 | 22.78° C | 57% | 1018.9 hPa | - | - | - | - |
| 1787968103 | 23.33° C | 55% | 1018.7 hPa | - | - | - | - |
| 1787967203 | 23.33° C | 55% | 1018.6 hPa | - | - | - | - |
| 1787965402 | 22.22° C | 57% | 1018.8 hPa | - | - | - | - |
| 1787964502 | 21.67° C | 58% | 1018.8 hPa | - | - | - | - |
| 1787963602 | 22.78° C | 56% | 1018.8 hPa | - | - | - | - |
| 1787962702 | 22.78° C | 57% | 1018.8 hPa | - | - | - | - |
| 1787961802 | 22.22° C | 57% | 1019 hPa | - | - | - | - |
| 1787960902 | 23.89° C | 54% | 1018.6 hPa | - | - | - | - |
| 1787960002 | 23.89° C | 54% | 1018.8 hPa | - | - | - | - |
| 1787959102 | 24.44° C | 51% | 1018.6 hPa | - | - | - | - |
| 1787952801 | 24.44° C | 49% | 1018.2 hPa | - | - | - | - |
| 1787949201 | 25° C | 49% | 1017 hPa | - | - | - | - |
| 1787948301 | 25° C | 50% | 1016.9 hPa | - | - | - | - |
| 1787947401 | 25.56° C | 51% | 1016.9 hPa | - | - | - | - |
| 1787945600 | 25° C | 52% | 1016.9 hPa | - | - | - | - |
* Rain since midnight (hover to see other rain measurements)
** Current wind speed in m/s (hover to see current wind gust speed)